Time;durP1;ratioP1;P1;durP2;ratioP2;P2;SDS_P1;SDS_P2;PMS_P1;PMS_P2;Temp;Humidity;BMP_temperature;BMP_pressure;BME280_temperature;BME280_humidity;BME280_pressure;Samples;Min_cycle;Max_cycle;Signal;HPM_P1;HPM_P2
2022/01/03 00:00:13;;;;;;;11.60;6.68;;;-5.90;99.90;;;;;;5032670;28;20146;-79
2022/01/03 00:02:42;;;;;;;13.57;7.50;;;-5.90;99.90;;;;;;5063985;28;20058;-79
2022/01/03 00:05:10;;;;;;;11.35;5.82;;;-5.90;99.90;;;;;;5048202;28;20064;-79
2022/01/03 00:07:42;;;;;;;10.48;5.70;;;-5.90;99.90;;;;;;5062589;28;20460;-79
2022/01/03 00:10:12;;;;;;;14.75;5.90;;;-5.90;99.90;;;;;;5032379;28;20041;-78
2022/01/03 00:12:41;;;;;;;13.43;5.97;;;-5.90;99.90;;;;;;5031291;28;20085;-79
2022/01/03 00:15:13;;;;;;;11.52;5.88;;;-5.90;99.90;;;;;;5032774;28;20042;-79
2022/01/03 00:17:41;;;;;;;12.60;5.75;;;-5.90;99.90;;;;;;5030844;28;20556;-79
2022/01/03 00:20:11;;;;;;;11.82;5.88;;;-5.90;99.90;;;;;;5064408;28;20402;-79
2022/01/03 00:22:49;;;;;;;13.85;5.82;;;-5.80;99.90;;;;;;5032569;28;20049;-79
2022/01/03 00:25:20;;;;;;;10.60;5.90;;;-5.80;99.90;;;;;;5030086;28;20052;-79
2022/01/03 00:27:57;;;;;;;15.32;5.80;;;-5.90;99.90;;;;;;5032005;28;20572;-80
2022/01/03 00:30:26;;;;;;;12.45;5.88;;;-5.90;99.90;;;;;;5031200;28;20545;-79
2022/01/03 00:32:54;;;;;;;8.65;4.85;;;-5.90;99.90;;;;;;5030949;28;20049;-80
2022/01/03 00:35:22;;;;;;;7.00;4.75;;;-5.90;99.90;;;;;;5028929;28;20044;-78
2022/01/03 00:37:51;;;;;;;11.05;5.05;;;-5.90;99.90;;;;;;5032053;28;20042;-79
2022/01/03 00:40:21;;;;;;;10.80;4.80;;;-6.00;99.90;;;;;;5032201;28;20065;-79
2022/01/03 00:42:50;;;;;;;7.78;4.40;;;-6.10;99.90;;;;;;5032103;28;20144;-80
2022/01/03 00:45:18;;;;;;;11.63;4.70;;;-6.10;99.90;;;;;;5030193;28;20045;-80
2022/01/03 00:47:47;;;;;;;6.68;4.38;;;-6.10;99.90;;;;;;5032046;28;20061;-79
2022/01/03 00:50:17;;;;;;;8.93;5.05;;;-6.10;99.90;;;;;;5031054;28;20056;-79
2022/01/03 00:52:47;;;;;;;8.32;4.45;;;-6.10;99.90;;;;;;5031596;28;20056;-78
2022/01/03 00:55:16;;;;;;;5.55;3.85;;;-6.10;99.90;;;;;;5031283;28;20064;-79
2022/01/03 00:57:58;;;;;;;9.23;4.85;;;-6.10;99.90;;;;;;5030849;28;20144;-79
2022/01/03 01:00:30;;;;;;;7.90;4.60;;;-6.00;99.90;;;;;;5014018;28;20601;-78
2022/01/03 01:03:05;;;;;;;7.68;3.85;;;-6.00;99.90;;;;;;5028671;28;20501;-79
2022/01/03 01:05:34;;;;;;;7.50;4.38;;;-6.00;99.90;;;;;;5031858;28;20434;-79
2022/01/03 01:08:03;;;;;;;8.40;4.43;;;-6.00;99.90;;;;;;5030482;28;20056;-78
2022/01/03 01:10:36;;;;;;;5.95;3.65;;;-6.00;99.90;;;;;;5029817;28;20049;-78
2022/01/03 01:13:09;;;;;;;6.35;3.85;;;-6.10;99.90;;;;;;5029432;28;20047;-80
2022/01/03 01:15:39;;;;;;;9.43;3.97;;;-6.00;99.90;;;;;;5064161;28;20056;-80
2022/01/03 01:18:07;;;;;;;8.25;4.03;;;-6.00;99.90;;;;;;5047148;28;20155;-79
2022/01/03 01:20:39;;;;;;;4.75;3.47;;;-6.00;99.90;;;;;;5062617;28;20053;-78
2022/01/03 01:23:08;;;;;;;5.85;4.05;;;-5.90;99.90;;;;;;5062041;28;20517;-78
2022/01/03 01:28:25;;;;;;;4.70;3.35;;;-6.00;99.90;;;;;;5030882;28;20048;-79
2022/01/03 01:30:58;;;;;;;3.85;3.08;;;-6.00;99.90;;;;;;5028558;28;20068;-78
2022/01/03 01:33:32;;;;;;;5.90;2.65;;;-6.00;99.90;;;;;;5027024;28;20050;-79
2022/01/03 01:36:03;;;;;;;4.32;3.28;;;-6.00;99.90;;;;;;5061110;28;20465;-78
2022/01/03 01:38:37;;;;;;;4.32;2.40;;;-6.00;99.90;;;;;;5046875;28;20055;-79
2022/01/03 01:41:08;;;;;;;5.30;2.78;;;-5.90;99.90;;;;;;5055105;28;20068;-79
2022/01/03 01:43:45;;;;;;;5.53;2.50;;;-6.00;99.90;;;;;;5062420;28;20481;-76
2022/01/03 01:46:19;;;;;;;4.20;2.80;;;-6.00;99.90;;;;;;5062549;28;20099;-75
2022/01/03 01:48:50;;;;;;;;;;;-6.00;99.90;;;;;;5044523;28;20049;-75
2022/01/03 01:51:22;;;;;;;3.03;1.83;;;-6.00;99.90;;;;;;5030179;28;19972;-75
2022/01/03 01:53:55;;;;;;;5.72;2.78;;;-6.00;99.90;;;;;;5025818;28;20057;-75
2022/01/03 01:56:39;;;;;;;5.40;2.90;;;-6.00;99.90;;;;;;5020457;28;20049;-75
2022/01/03 01:59:16;;;;;;;3.38;2.65;;;-6.00;99.90;;;;;;5027009;28;20575;-74
2022/01/03 02:01:50;;;;;;;4.38;2.60;;;-6.00;99.90;;;;;;5046492;28;20105;-77
2022/01/03 02:04:36;;;;;;;4.78;2.78;;;-6.00;99.90;;;;;;5029478;28;20107;-75
2022/01/03 02:07:27;;;;;;;3.05;2.42;;;-5.90;99.90;;;;;;5060942;28;20042;-74
2022/01/03 02:10:07;;;;;;;3.63;1.83;;;-5.90;99.90;;;;;;5037536;28;20049;-74
2022/01/03 02:12:42;;;;;;;3.67;2.35;;;-5.90;99.90;;;;;;5042562;28;20075;-75
2022/01/03 02:15:15;;;;;;;4.07;2.25;;;-5.80;99.90;;;;;;5059903;28;21440;-75
2022/01/03 02:17:47;;;;;;;3.88;1.77;;;-5.80;99.90;;;;;;5021709;28;20037;-75
2022/01/03 02:20:21;;;;;;;2.75;1.92;;;-5.90;99.90;;;;;;5045596;28;20075;-74
2022/01/03 02:22:52;;;;;;;2.88;1.98;;;-5.80;99.90;;;;;;5060264;28;20144;-74
2022/01/03 02:25:25;;;;;;;3.92;2.20;;;-5.80;99.90;;;;;;5060508;28;20063;-75
2022/01/03 02:27:55;;;;;;;2.28;1.80;;;-5.90;99.90;;;;;;5013339;28;20080;-75
2022/01/03 02:30:29;;;;;;;2.92;1.90;;;-5.80;99.90;;;;;;5025027;28;20491;-75
2022/01/03 02:32:57;;;;;;;3.13;2.17;;;-5.80;99.90;;;;;;5028977;28;20405;-75
2022/01/03 02:35:26;;;;;;;2.80;1.70;;;-5.80;99.90;;;;;;5026635;28;20041;-75
2022/01/03 02:37:55;;;;;;;3.97;1.80;;;-5.80;99.90;;;;;;5060703;28;20056;-75
2022/01/03 02:40:24;;;;;;;3.22;2.00;;;-5.80;99.90;;;;;;5024659;28;20065;-75
2022/01/03 02:42:54;;;;;;;2.97;1.88;;;-5.80;99.90;;;;;;5050508;28;20059;-75
2022/01/03 02:45:25;;;;;;;4.25;1.92;;;-5.70;99.90;;;;;;5059534;28;20529;-75
2022/01/03 02:47:57;;;;;;;2.38;1.85;;;-5.70;99.90;;;;;;5045720;28;20513;-76
2022/01/03 02:50:29;;;;;;;2.70;1.50;;;-5.70;99.90;;;;;;5025954;28;20433;-76
2022/01/03 02:52:57;;;;;;;3.40;2.15;;;-5.70;99.90;;;;;;5025852;28;20069;-76
2022/01/03 02:55:27;;;;;;;4.38;1.95;;;-5.70;99.90;;;;;;5039162;28;20056;-75
2022/01/03 02:58:05;;;;;;;4.45;1.95;;;-5.70;99.90;;;;;;5050703;28;20049;-76
2022/01/03 03:00:37;;;;;;;4.63;1.83;;;-5.60;99.90;;;;;;5047587;28;20045;-76
2022/01/03 03:03:05;;;;;;;4.47;2.30;;;-5.60;99.90;;;;;;5027138;28;20564;-76
2022/01/03 03:05:33;;;;;;;2.95;1.52;;;-5.60;99.90;;;;;;5028162;28;20532;-76
2022/01/03 03:08:01;;;;;;;1.92;1.30;;;-5.60;99.90;;;;;;5060843;28;20409;-76
2022/01/03 03:10:28;;;;;;;5.60;1.48;;;-5.60;99.90;;;;;;5045944;28;20128;-75
2022/01/03 03:13:00;;;;;;;3.90;3.15;;;-5.60;99.90;;;;;;5057729;28;20042;-76
2022/01/03 03:15:31;;;;;;;2.35;1.60;;;-5.60;99.90;;;;;;5066115;28;20049;-76
2022/01/03 03:17:59;;;;;;;2.05;1.80;;;-5.60;99.90;;;;;;5034067;28;20517;-76
2022/01/03 03:20:29;;;;;;;7.18;1.92;;;-5.60;99.90;;;;;;5033022;28;20050;-77
2022/01/03 03:23:00;;;;;;;3.10;2.17;;;-5.50;99.90;;;;;;5060479;28;20060;-74
2022/01/03 03:25:33;;;;;;;1.73;1.48;;;-5.50;99.90;;;;;;5066078;28;20053;-75
2022/01/03 03:28:05;;;;;;;4.68;2.00;;;-5.50;99.90;;;;;;5031860;28;20061;-74
2022/01/03 03:30:36;;;;;;;2.58;1.60;;;-5.50;99.90;;;;;;5029797;28;20049;-74
2022/01/03 03:33:08;;;;;;;2.67;1.63;;;-5.50;99.90;;;;;;5031408;28;20061;-74
2022/01/03 03:35:37;;;;;;;3.42;1.58;;;-5.50;99.90;;;;;;5014620;28;20057;-75
2022/01/03 03:38:06;;;;;;;6.13;1.80;;;-5.50;99.90;;;;;;5031680;28;20418;-75
2022/01/03 03:40:34;;;;;;;1.63;1.40;;;-5.50;99.90;;;;;;5063262;28;20072;-75
2022/01/03 03:43:03;;;;;;;3.80;1.88;;;-5.50;99.90;;;;;;5032063;28;20102;-75
2022/01/03 03:45:32;;;;;;;2.47;1.60;;;-5.40;99.90;;;;;;5043819;28;20054;-78
2022/01/03 03:48:01;;;;;;;3.40;1.75;;;-5.40;99.90;;;;;;5060699;28;20049;-78
2022/01/03 03:50:30;;;;;;;2.47;1.40;;;-5.40;99.90;;;;;;5046249;28;20049;-77
2022/01/03 03:52:59;;;;;;;1.25;1.10;;;-5.40;99.90;;;;;;5031402;28;20049;-78
2022/01/03 03:55:28;;;;;;;3.83;1.67;;;-5.40;99.90;;;;;;5045411;28;20140;-77
2022/01/03 03:57:56;;;;;;;1.98;1.40;;;-5.40;99.90;;;;;;5031660;28;20139;-77
2022/01/03 04:00:26;;;;;;;3.35;1.58;;;-5.40;99.90;;;;;;5063082;28;20394;-77
2022/01/03 04:02:59;;;;;;;2.30;2.10;;;-5.40;99.90;;;;;;5032578;28;20565;-77
2022/01/03 04:05:27;;;;;;;3.03;1.40;;;-5.40;99.90;;;;;;5012738;28;20062;-77
2022/01/03 04:07:55;;;;;;;4.57;1.83;;;-5.40;99.90;;;;;;5016797;28;20502;-77
2022/01/03 04:10:23;;;;;;;2.65;1.42;;;-5.40;99.90;;;;;;5064918;28;20128;-78
2022/01/03 04:12:53;;;;;;;2.42;1.65;;;-5.40;99.90;;;;;;5063628;28;20108;-78
2022/01/03 04:15:21;;;;;;;1.90;1.60;;;-5.40;99.90;;;;;;5014844;28;20050;-78
2022/01/03 04:17:52;;;;;;;2.22;1.85;;;-5.30;99.90;;;;;;5009090;28;20092;-78
2022/01/03 04:20:20;;;;;;;2.35;1.40;;;-5.30;99.90;;;;;;5029882;28;20468;-79
2022/01/03 04:22:49;;;;;;;4.05;2.20;;;-5.30;99.90;;;;;;5063743;28;20041;-79
2022/01/03 04:25:18;;;;;;;2.35;1.80;;;-5.30;99.90;;;;;;5028757;28;20062;-79
2022/01/03 04:27:45;;;;;;;2.33;1.50;;;-5.30;99.90;;;;;;5029748;28;20042;-79
2022/01/03 04:30:14;;;;;;;3.60;1.55;;;-5.30;99.90;;;;;;5029908;28;20124;-79
2022/01/03 04:32:42;;;;;;;2.13;1.10;;;-5.30;99.90;;;;;;5027580;28;20146;-79
2022/01/03 04:35:10;;;;;;;2.25;1.55;;;-5.30;99.90;;;;;;5027907;28;20596;-80
2022/01/03 04:37:38;;;;;;;4.68;1.55;;;-5.20;99.90;;;;;;5045033;28;20064;-79
2022/01/03 04:40:07;;;;;;;1.38;1.27;;;-5.30;99.90;;;;;;5063842;28;20050;-79
2022/01/03 04:42:34;;;;;;;1.88;1.30;;;-5.30;99.90;;;;;;5044005;28;20050;-79
2022/01/03 04:45:02;;;;;;;3.22;1.55;;;-5.30;99.90;;;;;;5028819;28;20428;-79
2022/01/03 04:47:32;;;;;;;4.05;1.77;;;-5.30;99.90;;;;;;5031378;28;20041;-79
2022/01/03 04:49:59;;;;;;;2.88;1.48;;;-5.20;99.90;;;;;;5062179;28;20064;-79
2022/01/03 04:52:27;;;;;;;1.88;1.15;;;-5.20;99.90;;;;;;5063011;28;20047;-78
2022/01/03 04:54:55;;;;;;;2.65;1.42;;;-5.20;99.90;;;;;;5045071;28;20089;-78
2022/01/03 04:57:22;;;;;;;2.92;1.55;;;-5.20;99.90;;;;;;5031324;28;20049;-79
2022/01/03 04:59:50;;;;;;;1.95;1.30;;;-5.20;99.90;;;;;;5031640;28;20045;-78
2022/01/03 05:02:17;;;;;;;2.08;1.40;;;-5.30;99.90;;;;;;5030774;28;20080;-79
2022/01/03 05:04:46;;;;;;;2.80;1.50;;;-5.30;99.90;;;;;;5061140;28;20599;-80
2022/01/03 05:07:14;;;;;;;4.35;1.63;;;-5.30;99.90;;;;;;5063695;28;20053;-80
2022/01/03 05:09:41;;;;;;;1.60;1.30;;;-5.30;99.90;;;;;;5028807;28;20046;-78
2022/01/03 05:12:10;;;;;;;5.28;1.73;;;-5.30;99.90;;;;;;5063957;28;20418;-78
2022/01/03 05:14:39;;;;;;;1.48;1.30;;;-5.30;99.90;;;;;;5045319;28;20516;-78
2022/01/03 05:17:07;;;;;;;6.65;1.67;;;-5.20;99.90;;;;;;5063534;28;20497;-78
2022/01/03 05:19:36;;;;;;;2.17;1.40;;;-5.20;99.90;;;;;;5026980;28;20046;-78
2022/01/03 05:22:05;;;;;;;1.60;1.50;;;-5.30;99.90;;;;;;5041454;28;20052;-77
2022/01/03 05:24:34;;;;;;;2.42;1.65;;;-5.30;99.90;;;;;;5028353;28;20429;-77
2022/01/03 05:27:03;;;;;;;5.75;2.00;;;-5.40;99.90;;;;;;5029754;28;20207;-77
2022/01/03 05:29:30;;;;;;;3.78;1.90;;;-5.30;99.90;;;;;;5029798;28;20052;-78
2022/01/03 05:31:59;;;;;;;2.95;1.83;;;-5.30;99.90;;;;;;5061665;28;20528;-80
2022/01/03 05:34:26;;;;;;;2.70;1.55;;;-5.30;99.90;;;;;;5028773;28;20033;-79
2022/01/03 05:36:54;;;;;;;2.92;2.00;;;-5.30;99.90;;;;;;5029472;28;20056;-79
2022/01/03 05:39:23;;;;;;;3.38;1.55;;;-5.30;99.90;;;;;;5029545;28;20449;-80
2022/01/03 05:41:51;;;;;;;4.47;2.65;;;-5.30;99.90;;;;;;5059774;28;20049;-80
2022/01/03 05:44:20;;;;;;;4.05;2.17;;;-5.40;99.90;;;;;;5030072;28;20049;-81
2022/01/03 05:46:47;;;;;;;10.38;2.47;;;-5.40;99.90;;;;;;5050465;28;20056;-80
2022/01/03 05:49:16;;;;;;;4.78;2.30;;;-5.30;99.90;;;;;;5028686;28;20037;-80
2022/01/03 05:51:46;;;;;;;2.83;2.17;;;-5.30;99.90;;;;;;5029962;28;20064;-80
2022/01/03 05:54:14;;;;;;;1.90;1.60;;;-5.30;99.90;;;;;;5063105;28;20421;-79
2022/01/03 05:56:43;;;;;;;3.92;2.10;;;-5.30;99.90;;;;;;5046198;28;20053;-78
2022/01/03 05:59:11;;;;;;;3.42;2.00;;;-5.30;99.90;;;;;;5042715;28;20053;-79
2022/01/03 06:01:41;;;;;;;3.80;1.48;;;-5.20;99.90;;;;;;5062601;28;20518;-79
2022/01/03 06:04:18;;;;;;;2.63;2.20;;;-5.20;99.90;;;;;;5029063;28;20541;-78
2022/01/03 06:06:54;;;;;;;2.42;1.50;;;-5.20;99.90;;;;;;5045822;28;20133;-79
2022/01/03 06:09:29;;;;;;;4.63;2.13;;;-5.20;99.90;;;;;;5060888;28;20046;-80
2022/01/03 06:11:59;;;;;;;2.28;1.58;;;-5.20;99.90;;;;;;5062284;28;20050;-79
2022/01/03 06:14:28;;;;;;;2.00;1.75;;;-5.20;99.90;;;;;;5061952;28;20042;-75
2022/01/03 06:16:56;;;;;;;2.83;1.80;;;-5.20;99.90;;;;;;5030135;28;20104;-75
2022/01/03 06:19:25;;;;;;;3.90;1.80;;;-5.30;99.90;;;;;;5061086;28;20047;-75
2022/01/03 06:21:53;;;;;;;4.20;2.05;;;-5.20;99.90;;;;;;5062187;28;20054;-75
2022/01/03 06:24:24;;;;;;;2.47;1.75;;;-5.30;99.90;;;;;;5045768;28;20077;-76
2022/01/03 06:26:54;;;;;;;2.53;1.48;;;-5.20;99.90;;;;;;5056688;28;20052;-80
2022/01/03 06:29:23;;;;;;;3.08;2.47;;;-5.30;99.90;;;;;;5059470;28;20058;-80
2022/01/03 06:31:52;;;;;;;3.85;1.70;;;-5.30;99.90;;;;;;5062302;28;20536;-78
2022/01/03 06:34:21;;;;;;;2.60;1.50;;;-5.30;99.90;;;;;;5026749;28;20054;-79
2022/01/03 06:36:48;;;;;;;2.92;1.67;;;-5.20;99.90;;;;;;5019199;28;20045;-80
2022/01/03 06:39:17;;;;;;;2.83;2.17;;;-5.20;99.90;;;;;;5013203;28;20529;-79
2022/01/03 06:41:45;;;;;;;2.22;1.70;;;-5.20;99.90;;;;;;5061736;28;20064;-76
2022/01/03 06:44:14;;;;;;;1.92;1.70;;;-5.20;99.90;;;;;;5012826;28;20148;-76
2022/01/03 06:46:44;;;;;;;3.92;1.60;;;-5.10;99.90;;;;;;5063252;28;20045;-76
2022/01/03 06:49:12;;;;;;;2.97;1.67;;;-5.10;99.90;;;;;;5049506;28;20049;-77
2022/01/03 06:51:41;;;;;;;5.00;1.80;;;-5.20;99.90;;;;;;5032503;28;20052;-76
2022/01/03 06:54:12;;;;;;;2.75;1.75;;;-5.20;99.90;;;;;;5065468;28;20045;-76
2022/01/03 06:56:48;;;;;;;2.83;1.70;;;-5.20;99.90;;;;;;5046463;28;20067;-77
2022/01/03 06:59:16;;;;;;;4.72;1.90;;;-5.20;99.90;;;;;;5030027;28;20072;-77
2022/01/03 07:01:45;;;;;;;2.90;2.00;;;-5.20;99.90;;;;;;5046988;28;20037;-77
2022/01/03 07:04:14;;;;;;;2.35;1.80;;;-5.10;99.90;;;;;;5029654;28;20053;-76
2022/01/03 07:06:41;;;;;;;2.00;1.65;;;-5.10;99.90;;;;;;5032688;28;20045;-76
2022/01/03 07:09:09;;;;;;;4.53;2.00;;;-5.10;99.90;;;;;;5049781;28;20054;-77
2022/01/03 07:11:37;;;;;;;2.45;2.00;;;-5.10;99.90;;;;;;5031735;28;20049;-78
2022/01/03 07:19:37;;;;;;;2.40;1.90;;;-5.10;99.90;;;;;;5033068;28;20045;-78
2022/01/03 07:22:07;;;;;;;6.97;1.90;;;-5.10;99.90;;;;;;5030582;28;20067;-76
2022/01/03 07:24:37;;;;;;;2.38;1.90;;;-5.10;99.90;;;;;;5009094;28;20149;-78
2022/01/03 07:27:07;;;;;;;3.08;2.42;;;-5.10;99.90;;;;;;5033752;28;20077;-75
2022/01/03 07:29:35;;;;;;;2.03;1.75;;;-5.10;99.90;;;;;;5031851;28;20049;-76
2022/01/03 07:32:05;;;;;;;3.95;2.28;;;-5.10;99.90;;;;;;5046827;28;20045;-76
2022/01/03 07:34:33;;;;;;;4.93;2.20;;;-5.10;99.90;;;;;;5033544;28;20384;-77
2022/01/03 07:37:00;;;;;;;2.92;2.00;;;-5.00;99.90;;;;;;5033831;28;20037;-78
2022/01/03 07:39:30;;;;;;;5.85;1.98;;;-5.00;99.90;;;;;;5032403;28;20049;-79
2022/01/03 07:41:58;;;;;;;2.58;1.65;;;-4.90;99.90;;;;;;5031217;28;20054;-79
2022/01/03 07:44:27;;;;;;;4.57;2.03;;;-4.90;99.90;;;;;;5044732;28;20140;-79
2022/01/03 07:46:55;;;;;;;5.68;1.90;;;-4.90;99.90;;;;;;5059187;28;20076;-79
2022/01/03 07:49:24;;;;;;;3.75;1.98;;;-4.90;99.90;;;;;;5026077;28;20453;-78
2022/01/03 07:51:52;;;;;;;7.05;2.20;;;-4.90;99.90;;;;;;5029373;28;20089;-77
2022/01/03 07:54:19;;;;;;;3.70;2.25;;;-4.90;99.90;;;;;;5044302;28;20533;-80
2022/01/03 07:57:02;;;;;;;5.32;1.88;;;-4.80;99.90;;;;;;5029159;28;20416;-80
2022/01/03 07:59:30;;;;;;;3.40;2.55;;;-4.80;99.90;;;;;;5048309;28;20053;-78
2022/01/03 08:01:59;;;;;;;2.55;1.90;;;-4.70;99.90;;;;;;5030445;28;20115;-78
2022/01/03 08:04:29;;;;;;;3.88;2.40;;;-4.60;99.90;;;;;;5064772;28;20083;-80
2022/01/03 08:06:56;;;;;;;2.35;1.60;;;-4.50;99.90;;;;;;5032382;28;20053;-80
2022/01/03 08:09:23;;;;;;;2.42;2.10;;;-4.50;99.90;;;;;;5047419;28;20140;-81
2022/01/03 08:11:52;;;;;;;3.22;1.95;;;-4.40;99.90;;;;;;5033154;28;20398;-80
2022/01/03 08:14:19;;;;;;;5.13;2.72;;;-4.40;99.90;;;;;;5033663;28;20473;-82
2022/01/03 08:16:47;;;;;;;3.63;2.22;;;-4.40;99.90;;;;;;5031846;28;20425;-79
2022/01/03 08:19:18;;;;;;;3.33;2.08;;;-4.40;99.90;;;;;;5032246;28;20468;-79
2022/01/03 08:21:48;;;;;;;7.13;2.60;;;-4.40;99.90;;;;;;5032229;28;20052;-78
2022/01/03 08:24:16;;;;;;;3.67;1.98;;;-4.40;99.90;;;;;;5048052;28;20042;-77
2022/01/03 08:26:43;;;;;;;4.95;2.65;;;-4.40;99.90;;;;;;5028493;28;20103;-79
2022/01/03 08:29:14;;;;;;;6.28;2.42;;;-4.50;99.90;;;;;;5031870;28;20144;-79
2022/01/03 08:31:41;;;;;;;6.68;2.65;;;-4.50;99.90;;;;;;5012863;28;20060;-81
2022/01/03 08:34:09;;;;;;;4.95;3.08;;;-4.60;99.90;;;;;;5029220;28;20505;-82
2022/01/03 08:36:37;;;;;;;3.72;2.13;;;-4.60;99.90;;;;;;5031324;28;20084;-82
2022/01/03 08:39:06;;;;;;;9.55;2.92;;;-4.60;99.90;;;;;;5047119;28;20045;-80
2022/01/03 08:41:33;;;;;;;5.93;2.60;;;-4.60;99.90;;;;;;5030756;28;20049;-81
2022/01/03 08:44:00;;;;;;;4.82;2.72;;;-4.60;99.90;;;;;;5031730;28;20054;-74
2022/01/03 08:46:28;;;;;;;3.17;2.40;;;-4.60;99.90;;;;;;5031002;28;20054;-75
2022/01/03 08:48:56;;;;;;;4.38;2.63;;;-4.50;99.90;;;;;;5031036;28;20112;-80
2022/01/03 08:51:25;;;;;;;2.58;2.08;;;-4.50;99.90;;;;;;5031383;28;20045;-77
2022/01/03 08:53:53;;;;;;;4.10;2.40;;;-4.40;99.90;;;;;;5029568;28;20038;-79
2022/01/03 08:56:23;;;;;;;3.05;2.13;;;-4.40;99.90;;;;;;5031603;28;20509;-81
2022/01/03 08:58:50;;;;;;;5.93;2.13;;;-4.40;99.90;;;;;;5030724;28;20421;-78
2022/01/03 09:01:18;;;;;;;3.75;2.33;;;-4.50;99.90;;;;;;5021631;28;20077;-77
2022/01/03 09:03:50;;;;;;;5.15;2.42;;;-4.40;99.90;;;;;;5015500;28;20091;-78
2022/01/03 09:06:18;;;;;;;5.70;2.50;;;-4.40;99.90;;;;;;5026790;28;20103;-79
2022/01/03 09:08:45;;;;;;;4.57;2.58;;;-4.40;99.90;;;;;;5028523;28;20049;-79
2022/01/03 09:11:14;;;;;;;99.72;46.15;;;-4.30;99.90;;;;;;5030085;28;20056;-73
2022/01/03 09:13:43;;;;;;;11.07;5.38;;;-4.30;99.90;;;;;;5026623;28;20421;-78
2022/01/03 09:16:10;;;;;;;5.88;2.88;;;-4.20;99.90;;;;;;5029181;28;20141;-80
2022/01/03 09:18:40;;;;;;;5.90;2.88;;;-4.30;99.90;;;;;;5029465;28;20042;-78
2022/01/03 09:21:10;;;;;;;4.00;2.75;;;-4.30;99.90;;;;;;5028222;28;20049;-78
2022/01/03 09:23:48;;;;;;;4.53;2.50;;;-4.20;99.90;;;;;;5030115;28;20057;-77
2022/01/03 09:29:02;;;;;;;3.05;2.03;;;-4.20;99.90;;;;;;5049902;28;20076;-74
2022/01/03 09:31:33;;;;;;;5.13;2.40;;;-4.20;99.90;;;;;;5029852;28;20054;-80
2022/01/03 09:34:04;;;;;;;4.30;2.70;;;-4.10;99.90;;;;;;5031108;28;20045;-78
2022/01/03 09:36:33;;;;;;;2.13;1.90;;;-4.10;99.90;;;;;;5056978;28;20045;-77
2022/01/03 09:39:02;;;;;;;3.80;2.30;;;-4.20;99.90;;;;;;5027638;28;20057;-76
2022/01/03 09:41:33;;;;;;;3.95;2.20;;;-4.20;99.90;;;;;;5027950;28;20574;-79
2022/01/03 09:44:05;;;;;;;6.78;2.47;;;-4.20;99.90;;;;;;5031260;28;20069;-76
2022/01/03 09:46:36;;;;;;;6.55;2.75;;;-4.20;99.90;;;;;;5046829;28;20087;-77
2022/01/03 09:49:06;;;;;;;4.57;2.72;;;-4.10;99.90;;;;;;5029988;28;20111;-77
2022/01/03 09:51:34;;;;;;;4.43;2.17;;;-4.10;99.90;;;;;;5028686;28;20536;-77
2022/01/03 09:54:07;;;;;;;3.97;2.30;;;-4.20;99.90;;;;;;5029719;28;20052;-79
2022/01/03 09:56:36;;;;;;;;;;;-4.20;99.90;;;;;;4981642;28;20057;-77
2022/01/03 09:59:10;;;;;;;3.75;2.25;;;-4.10;99.90;;;;;;5040812;28;20342;-78
2022/01/03 10:01:40;;;;;;;4.30;2.70;;;-4.20;99.90;;;;;;5030560;28;20573;-79
2022/01/03 10:04:09;;;;;;;3.00;2.15;;;-4.10;99.90;;;;;;5030189;28;20049;-79
2022/01/03 10:06:37;;;;;;;2.65;2.20;;;-4.10;99.90;;;;;;5027420;28;20409;-80
2022/01/03 10:09:05;;;;;;;2.15;1.88;;;-4.10;99.90;;;;;;5023730;28;20485;-79
2022/01/03 10:11:33;;;;;;;6.63;2.05;;;-4.10;99.90;;;;;;5029863;28;20489;-78
2022/01/03 10:14:01;;;;;;;4.95;2.58;;;-4.10;99.90;;;;;;5029017;28;20049;-79
2022/01/03 10:16:30;;;;;;;4.88;2.88;;;-4.00;99.90;;;;;;5026728;28;20047;-78
2022/01/03 10:18:59;;;;;;;3.40;2.33;;;-4.00;99.90;;;;;;5027669;28;20521;-79
2022/01/03 10:21:36;;;;;;;3.10;2.42;;;-3.90;99.90;;;;;;5041535;28;20049;-81
2022/01/03 10:24:06;;;;;;;3.28;2.28;;;-4.00;99.90;;;;;;5027916;28;20514;-80
2022/01/03 10:26:34;;;;;;;8.55;3.33;;;-4.00;99.90;;;;;;5026308;28;20045;-80
2022/01/03 10:29:26;;;;;;;4.88;2.45;;;-4.00;99.90;;;;;;5028101;28;20057;-83
2022/01/03 10:32:02;;;;;;;5.07;2.58;;;-4.10;99.90;;;;;;5022382;28;20114;-82
2022/01/03 10:34:34;;;;;;;9.98;3.05;;;-4.00;99.90;;;;;;5028542;28;20506;-87
2022/01/03 10:37:12;;;;;;;3.95;2.20;;;-4.10;99.90;;;;;;5026355;28;20045;-82
2022/01/03 10:39:40;;;;;;;3.17;1.95;;;-4.20;99.90;;;;;;5027206;28;20510;-83
2022/01/03 10:42:17;;;;;;;4.45;2.28;;;-4.20;99.90;;;;;;5042442;28;20049;-86
2022/01/03 10:44:46;;;;;;;4.35;2.47;;;-4.10;99.90;;;;;;5023804;28;20061;-78
2022/01/03 10:47:30;;;;;;;6.20;2.28;;;-4.20;99.90;;;;;;5026493;28;20128;-85
2022/01/03 10:49:57;;;;;;;5.78;2.67;;;-4.10;99.90;;;;;;5028540;28;20401;-85
2022/01/03 10:52:27;;;;;;;4.25;2.20;;;-4.10;99.90;;;;;;5029146;28;20046;-83
2022/01/03 10:55:18;;;;;;;3.33;2.13;;;-4.10;99.90;;;;;;5014054;28;20058;-79
2022/01/03 10:57:53;;;;;;;4.20;2.88;;;-4.20;99.90;;;;;;5027888;28;20061;-86
2022/01/03 11:00:32;;;;;;;6.70;2.20;;;-4.10;99.90;;;;;;5029525;28;20053;-86
2022/01/03 11:03:22;;;;;;;4.43;2.22;;;-4.10;99.90;;;;;;5021086;28;20045;-79
2022/01/03 11:05:58;;;;;;;5.07;2.40;;;-4.10;99.90;;;;;;5026400;28;20049;-79
2022/01/03 11:11:16;;;;;;;8.10;2.40;;;-4.20;99.90;;;;;;5024143;28;20056;-82
2022/01/03 11:13:47;;;;;;;7.85;2.83;;;-4.20;99.90;;;;;;5039071;28;20052;-85
2022/01/03 11:16:15;;;;;;;4.45;3.03;;;-4.30;99.90;;;;;;5024547;28;20072;-86
2022/01/03 11:18:48;;;;;;;6.70;2.75;;;-4.30;99.90;;;;;;5030616;28;20100;-86
2022/01/03 11:21:20;;;;;;;6.35;3.15;;;-4.40;99.90;;;;;;5032533;28;20111;-85
2022/01/03 11:23:51;;;;;;;5.93;3.15;;;-4.40;99.90;;;;;;5028598;28;20465;-82
2022/01/03 11:26:21;;;;;;;4.60;2.35;;;-4.40;99.90;;;;;;5043753;28;20148;-85
2022/01/03 11:28:49;;;;;;;5.78;2.88;;;-4.40;99.90;;;;;;5030374;28;20132;-87
2022/01/03 11:31:19;;;;;;;3.78;2.70;;;-4.50;99.90;;;;;;5030794;28;20457;-84
2022/01/03 11:33:51;;;;;;;6.22;2.30;;;-4.50;99.90;;;;;;5036591;28;20054;-85
2022/01/03 11:36:21;;;;;;;6.72;2.92;;;-4.50;99.90;;;;;;5031331;28;20042;-90
2022/01/03 11:38:49;;;;;;;7.88;4.07;;;-4.40;99.90;;;;;;5034014;28;20457;-90
2022/01/03 11:41:17;;;;;;;7.80;3.17;;;-4.40;99.90;;;;;;5035263;28;20045;-88
2022/01/03 11:43:46;;;;;;;5.45;2.97;;;-4.40;99.90;;;;;;5035120;28;20057;-88
2022/01/03 11:46:14;;;;;;;7.30;2.65;;;-4.40;99.90;;;;;;5035136;28;20055;-85
2022/01/03 11:48:41;;;;;;;4.13;2.78;;;-4.40;99.90;;;;;;5033279;28;20056;-84
2022/01/03 11:51:12;;;;;;;9.15;3.25;;;-4.30;99.90;;;;;;5028367;28;20056;-86
2022/01/03 11:53:46;;;;;;;3.55;2.10;;;-4.20;99.90;;;;;;5044851;28;20046;-86
2022/01/03 11:56:20;;;;;;;7.65;2.92;;;-4.10;99.90;;;;;;5026640;28;20588;-80
2022/01/03 11:59:02;;;;;;;8.40;2.63;;;-4.20;99.90;;;;;;5026079;28;20480;-80
2022/01/03 12:04:24;;;;;;;4.13;2.28;;;-4.40;99.90;;;;;;5028316;28;20085;-83
2022/01/03 12:07:05;;;;;;;3.22;1.83;;;-4.40;99.90;;;;;;5027310;28;20111;-79
2022/01/03 12:09:35;;;;;;;3.22;2.28;;;-4.40;99.90;;;;;;5027386;28;20184;-82
2022/01/03 12:12:03;;;;;;;5.13;2.60;;;-4.50;99.90;;;;;;5026215;28;20516;-81
2022/01/03 12:14:44;;;;;;;5.95;2.83;;;-4.40;99.90;;;;;;5027678;28;20053;-82
2022/01/03 12:17:12;;;;;;;4.18;2.83;;;-4.50;99.90;;;;;;5027985;28;20055;-81
2022/01/03 12:19:43;;;;;;;7.85;3.97;;;-4.50;99.90;;;;;;5029663;28;20043;-85
2022/01/03 12:22:15;;;;;;;4.78;3.15;;;-4.50;99.90;;;;;;5040835;28;20053;-84
2022/01/03 12:24:47;;;;;;;10.18;2.60;;;-4.50;99.90;;;;;;5028327;28;20140;-82
2022/01/03 12:27:36;;;;;;;6.95;3.25;;;-4.60;99.90;;;;;;5027330;28;20567;-82
2022/01/03 12:30:30;;;;;;;6.22;2.47;;;-4.60;99.90;;;;;;5027905;28;20504;-82
2022/01/03 12:33:25;;;;;;;5.75;2.78;;;-4.50;99.90;;;;;;5030489;28;20153;-87
2022/01/03 12:36:19;;;;;;;6.28;2.35;;;-4.50;99.90;;;;;;5027532;28;20049;-84
2022/01/03 12:39:08;;;;;;;7.15;3.28;;;-4.50;99.90;;;;;;5027452;28;20050;-83
2022/01/03 12:41:47;;;;;;;4.97;2.90;;;-4.60;99.90;;;;;;5027556;28;20056;-85
2022/01/03 12:44:50;;;;;;;3.95;2.60;;;-4.60;99.90;;;;;;5028730;28;20094;-82
2022/01/03 12:47:20;;;;;;;7.20;2.88;;;-4.60;99.90;;;;;;5027919;28;20053;-84
2022/01/03 12:49:47;;;;;;;4.55;2.55;;;-4.60;99.90;;;;;;5028806;28;20969;-84
2022/01/03 12:52:18;;;;;;;4.63;2.83;;;-4.60;99.90;;;;;;5029320;28;20044;-83
2022/01/03 12:54:48;;;;;;;4.78;3.08;;;-4.60;99.90;;;;;;5028921;28;20568;-84
2022/01/03 12:57:18;;;;;;;7.30;2.88;;;-4.60;99.90;;;;;;5030026;28;20418;-86
2022/01/03 12:59:45;;;;;;;8.32;4.15;;;-4.60;99.90;;;;;;5022945;28;20041;-84
2022/01/03 13:02:30;;;;;;;8.45;3.03;;;-4.60;99.90;;;;;;5026965;28;20049;-85
2022/01/03 13:05:03;;;;;;;2.92;2.35;;;-4.60;99.90;;;;;;5030652;28;20057;-85
2022/01/03 13:07:30;;;;;;;6.00;2.35;;;-4.60;99.90;;;;;;5042454;28;20053;-82
2022/01/03 13:09:59;;;;;;;4.50;1.90;;;-4.60;99.90;;;;;;5027337;28;20050;-80
2022/01/03 13:12:27;;;;;;;4.18;2.40;;;-4.60;99.90;;;;;;5028171;28;20096;-82
2022/01/03 13:15:02;;;;;;;5.60;2.97;;;-4.60;99.90;;;;;;5027875;28;20037;-83
2022/01/03 13:17:30;;;;;;;7.90;2.50;;;-4.60;99.90;;;;;;5043655;28;20049;-83
2022/01/03 13:20:05;;;;;;;3.55;2.10;;;-4.60;99.90;;;;;;5027793;28;20131;-84